createdAt,value
2019-02-23T00:00:27.521Z,6.42
2019-02-23T00:03:02.376Z,6.08
2019-02-23T00:05:35.629Z,6.83
2019-02-23T00:08:08.869Z,6.85
2019-02-23T00:10:42.115Z,6.05
2019-02-23T00:13:15.346Z,6.72
2019-02-23T00:15:48.897Z,6.53
2019-02-23T00:18:22.130Z,7.00
2019-02-23T00:20:55.373Z,6.45
2019-02-23T00:23:28.611Z,7.08
2019-02-23T00:26:01.861Z,6.60
2019-02-23T00:28:35.100Z,7.20
2019-02-23T00:31:08.342Z,6.47
2019-02-23T00:33:41.576Z,6.53
2019-02-23T00:36:14.831Z,6.95
2019-02-23T00:38:48.133Z,7.03
2019-02-23T00:41:21.386Z,7.33
2019-02-23T00:43:54.624Z,7.08
2019-02-23T00:46:28.837Z,6.37
2019-02-23T00:49:02.076Z,7.17
2019-02-23T00:51:35.338Z,6.67
2019-02-23T00:54:08.571Z,6.40
2019-02-23T00:56:41.831Z,7.65
2019-02-23T00:59:15.064Z,6.58
2019-02-23T01:01:48.320Z,7.47
2019-02-23T01:04:21.550Z,6.83
2019-02-23T01:06:54.804Z,6.87
2019-02-23T01:09:28.053Z,6.40
2019-02-23T01:12:01.306Z,6.62
2019-02-23T01:14:34.544Z,7.05
2019-02-23T01:17:07.787Z,7.20
2019-02-23T01:19:47.832Z,7.05
2019-02-23T01:22:15.986Z,7.20
2019-02-23T01:24:50.282Z,6.87
2019-02-23T01:27:23.544Z,6.42
2019-02-23T01:29:56.785Z,7.47
2019-02-23T01:32:30.034Z,7.45
2019-02-23T01:35:04.115Z,7.58
2019-02-23T01:37:37.371Z,6.85
2019-02-23T01:40:10.605Z,6.50
2019-02-23T01:42:43.861Z,6.83
2019-02-23T01:45:17.090Z,6.05
2019-02-23T01:47:50.345Z,6.30
2019-02-23T01:50:23.579Z,7.47
2019-02-23T01:52:56.826Z,6.42
2019-02-23T01:55:30.055Z,6.72
2019-02-23T01:58:03.306Z,6.72
2019-02-23T02:00:36.542Z,5.90
2019-02-23T02:03:09.805Z,6.17
2019-02-23T02:05:43.047Z,6.78
2019-02-23T02:08:16.288Z,6.20
2019-02-23T02:10:49.521Z,5.83
2019-02-23T02:13:22.757Z,5.95
2019-02-23T02:15:55.986Z,6.35
2019-02-23T02:18:29.234Z,6.37
2019-02-23T02:21:02.462Z,6.17
2019-02-23T02:23:35.708Z,6.15
2019-02-23T02:26:08.948Z,6.22
2019-02-23T02:28:42.207Z,6.10
2019-02-23T02:31:15.449Z,6.65
2019-02-23T02:34:06.367Z,5.95
2019-02-23T02:36:39.595Z,5.35
2019-02-23T02:39:13.199Z,5.85
2019-02-23T02:41:46.452Z,5.40
2019-02-23T02:44:19.700Z,5.80
2019-02-23T02:46:52.923Z,5.67
2019-02-23T02:49:26.178Z,6.30
2019-02-23T02:51:59.409Z,5.80
2019-02-23T02:54:32.665Z,7.03
2019-02-23T02:57:05.907Z,6.33
2019-02-23T02:59:39.151Z,6.10
2019-02-23T03:02:12.389Z,5.97
2019-02-23T03:04:45.634Z,5.97
2019-02-23T03:07:18.875Z,6.75
2019-02-23T03:09:52.122Z,6.03
2019-02-23T03:12:25.349Z,6.08
2019-02-23T03:14:58.595Z,6.00
2019-02-23T03:17:31.831Z,5.12
2019-02-23T03:20:06.826Z,5.37
2019-02-23T03:22:40.058Z,6.35
2019-02-23T03:25:13.303Z,5.70
2019-02-23T03:27:46.535Z,5.92
2019-02-23T03:30:19.785Z,5.42
2019-02-23T03:32:53.090Z,5.47
2019-02-23T03:35:26.329Z,5.53
2019-02-23T03:37:59.551Z,5.87
2019-02-23T03:40:32.801Z,5.55
2019-02-23T03:43:06.028Z,5.35
2019-02-23T03:45:39.291Z,6.50
2019-02-23T03:48:12.528Z,6.15
2019-02-23T03:50:49.186Z,5.50
2019-02-23T03:53:20.702Z,5.40
2019-02-23T03:55:53.956Z,5.85
2019-02-23T03:58:27.191Z,6.53
2019-02-23T04:01:00.450Z,5.60
2019-02-23T04:03:33.681Z,5.42
2019-02-23T04:06:06.925Z,5.15
2019-02-23T04:08:40.164Z,5.60
2019-02-23T04:11:13.419Z,5.25
2019-02-23T04:13:46.651Z,5.67
2019-02-23T04:16:19.898Z,5.28
2019-02-23T04:18:53.148Z,5.22
2019-02-23T04:21:26.387Z,5.42
2019-02-23T04:24:00.691Z,5.60
2019-02-23T04:26:33.941Z,5.22
2019-02-23T04:29:07.174Z,5.10
2019-02-23T04:31:40.434Z,5.40
2019-02-23T04:34:13.654Z,4.83
2019-02-23T04:36:46.901Z,4.92
2019-02-23T04:39:20.131Z,5.70
2019-02-23T04:41:53.387Z,4.90
2019-02-23T04:44:27.591Z,5.22
2019-02-23T04:47:00.846Z,5.17
2019-02-23T04:49:34.079Z,4.90
2019-02-23T04:52:07.326Z,5.00
2019-02-23T04:54:40.560Z,4.85
2019-02-23T04:57:13.811Z,5.70
2019-02-23T04:59:47.067Z,5.47
2019-02-23T05:02:20.293Z,5.20
2019-02-23T05:04:53.525Z,5.25
2019-02-23T05:07:26.771Z,5.35
2019-02-23T05:10:00.012Z,4.62
2019-02-23T05:12:33.263Z,5.22
2019-02-23T05:15:08.533Z,5.85
2019-02-23T05:17:41.774Z,5.60
2019-02-23T05:20:15.009Z,4.72
2019-02-23T05:22:48.266Z,5.12
2019-02-23T05:25:21.482Z,4.80
2019-02-23T05:27:54.741Z,5.42
2019-02-23T05:30:27.979Z,5.62
2019-02-23T05:33:01.216Z,5.03
2019-02-23T05:35:34.445Z,5.28
2019-02-23T05:38:07.693Z,4.65
2019-02-23T05:40:40.920Z,4.87
2019-02-23T05:43:14.175Z,4.60
2019-02-23T05:45:47.406Z,4.97
2019-02-23T05:48:20.657Z,4.42
2019-02-23T05:50:53.890Z,4.50
2019-02-23T05:53:27.133Z,3.90
2019-02-23T05:56:00.362Z,3.92
2019-02-23T05:58:33.608Z,4.40
2019-02-23T06:01:06.839Z,4.05
2019-02-23T06:03:40.392Z,4.20
2019-02-23T06:06:13.628Z,3.33
2019-02-23T06:08:46.947Z,3.50
2019-02-23T06:11:20.183Z,3.58
2019-02-23T06:13:53.502Z,4.55
2019-02-23T06:16:26.719Z,4.05
2019-02-23T06:18:59.971Z,3.42
2019-02-23T06:21:33.208Z,3.90
2019-02-23T06:24:06.466Z,3.67
2019-02-23T06:26:39.698Z,3.62
2019-02-23T06:29:12.959Z,3.27
2019-02-23T06:31:46.185Z,5.47
2019-02-23T06:34:19.432Z,3.92
2019-02-23T06:36:52.666Z,4.60
2019-02-23T06:39:25.913Z,4.47
2019-02-23T06:41:59.148Z,5.20
2019-02-23T06:44:32.402Z,5.00
2019-02-23T06:47:05.646Z,5.47
2019-02-23T06:49:38.901Z,5.45
2019-02-23T06:52:12.508Z,5.33
2019-02-23T06:54:45.752Z,4.97
2019-02-23T06:57:18.991Z,4.90
2019-02-23T06:59:52.250Z,4.72
2019-02-23T07:02:25.488Z,5.40
2019-02-23T07:04:58.735Z,5.15
2019-02-23T07:07:31.977Z,5.10
2019-02-23T07:10:08.321Z,4.75
2019-02-23T07:12:41.570Z,4.50
2019-02-23T07:15:14.812Z,4.83
2019-02-23T07:17:48.045Z,4.72
2019-02-23T07:20:21.284Z,5.08
2019-02-23T07:22:54.523Z,4.90
2019-02-23T07:25:27.765Z,4.08
2019-02-23T07:28:00.993Z,4.47
2019-02-23T07:30:34.240Z,3.75
2019-02-23T07:33:07.476Z,3.87
2019-02-23T07:35:40.731Z,4.08
2019-02-23T07:38:13.958Z,4.45
2019-02-23T07:40:47.202Z,4.67
2019-02-23T07:43:20.437Z,4.03
2019-02-23T07:45:53.673Z,4.70
2019-02-23T07:48:26.910Z,4.25
2019-02-23T07:51:00.145Z,3.92
2019-02-23T07:53:33.380Z,4.85
2019-02-23T07:56:06.621Z,3.83
2019-02-23T07:58:39.858Z,4.12
2019-02-23T08:01:14.081Z,4.17
2019-02-23T08:07:07.653Z,4.10
2019-02-23T08:09:41.854Z,3.83
2019-02-23T08:12:15.117Z,4.45
2019-02-23T08:14:48.355Z,4.25
2019-02-23T08:17:21.595Z,4.50
2019-02-23T08:19:54.830Z,4.60
2019-02-23T08:22:37.056Z,4.30
2019-02-23T08:25:04.780Z,4.62
2019-02-23T08:27:38.039Z,4.45
2019-02-23T08:30:15.106Z,4.80
2019-02-23T08:32:48.357Z,4.90
2019-02-23T08:35:21.593Z,4.50
2019-02-23T08:37:54.836Z,5.12
2019-02-23T08:40:28.069Z,4.87
2019-02-23T08:43:01.302Z,5.22
2019-02-23T08:45:34.535Z,5.17
2019-02-23T08:48:07.791Z,5.10
2019-02-23T08:50:41.025Z,5.30
2019-02-23T08:53:14.279Z,4.95
2019-02-23T08:55:47.518Z,4.58
2019-02-23T08:58:20.776Z,4.92
2019-02-23T09:00:54.000Z,5.58
2019-02-23T09:03:27.245Z,4.55
2019-02-23T09:06:00.469Z,4.95
2019-02-23T09:08:33.709Z,5.20
2019-02-23T09:11:06.944Z,5.03
2019-02-23T09:13:40.175Z,5.70
2019-02-23T09:16:13.418Z,4.97
2019-02-23T09:18:47.621Z,5.10
2019-02-23T09:21:20.850Z,4.83
2019-02-23T09:23:54.102Z,4.97
2019-02-23T09:26:27.334Z,5.08
2019-02-23T09:29:00.572Z,4.70
2019-02-23T09:31:33.802Z,4.92
2019-02-23T09:34:07.050Z,5.15
2019-02-23T09:36:40.276Z,5.17
2019-02-23T09:39:13.536Z,5.28
2019-02-23T09:41:46.773Z,5.12
2019-02-23T09:44:20.048Z,5.33
2019-02-23T09:46:53.250Z,4.87
2019-02-23T09:49:26.500Z,5.20
2019-02-23T09:51:59.729Z,5.25
2019-02-23T09:54:32.996Z,5.03
2019-02-23T09:57:06.207Z,5.62
2019-02-23T09:59:40.277Z,5.87
2019-02-23T10:02:13.585Z,5.55
2019-02-23T10:04:46.831Z,5.47
2019-02-23T10:07:20.061Z,5.60
2019-02-23T10:09:53.303Z,5.62
2019-02-23T10:12:26.537Z,5.30
2019-02-23T10:14:59.786Z,5.03
2019-02-23T10:17:33.027Z,5.35
2019-02-23T10:20:09.069Z,5.85
2019-02-23T10:22:42.309Z,7.62
2019-02-23T10:25:15.561Z,6.97
2019-02-23T10:27:48.784Z,6.62
2019-02-23T10:30:22.052Z,9.40
2019-02-23T10:32:55.274Z,29.75
2019-02-23T10:35:28.519Z,31.42
2019-02-23T10:38:01.772Z,29.82
2019-02-23T10:40:35.030Z,28.57
2019-02-23T10:43:08.271Z,27.48
2019-02-23T10:45:41.522Z,26.25
2019-02-23T10:48:14.762Z,25.30
2019-02-23T10:50:48.017Z,26.15
2019-02-23T10:53:21.256Z,22.48
2019-02-23T10:55:54.503Z,22.22
2019-02-23T10:58:27.741Z,21.57
2019-02-23T11:01:02.074Z,19.65
2019-02-23T11:03:35.385Z,19.17
2019-02-23T11:06:08.666Z,16.67
2019-02-23T11:08:41.904Z,17.00
2019-02-23T11:11:15.219Z,15.68
2019-02-23T11:13:48.391Z,14.10
2019-02-23T11:16:21.650Z,12.93
2019-02-23T11:18:54.897Z,12.55
2019-02-23T11:21:28.147Z,11.78
2019-02-23T11:24:01.390Z,11.35
2019-02-23T11:26:34.639Z,12.40
2019-02-23T11:29:07.878Z,12.07
2019-02-23T11:31:41.124Z,10.45
2019-02-23T11:34:14.355Z,10.82
2019-02-23T11:36:47.888Z,10.68
2019-02-23T11:39:21.122Z,10.28
2019-02-23T11:41:54.369Z,11.18
2019-02-23T11:44:27.683Z,10.45
2019-02-23T11:47:00.930Z,9.93
2019-02-23T11:49:34.166Z,9.78
2019-02-23T11:52:07.441Z,9.23
2019-02-23T11:54:40.652Z,10.38
2019-02-23T11:57:13.902Z,10.23
2019-02-23T11:59:47.139Z,9.45
2019-02-23T12:02:20.384Z,9.35
2019-02-23T12:04:53.627Z,9.83
2019-02-23T12:07:26.865Z,9.85
2019-02-23T12:10:00.331Z,9.33
2019-02-23T12:12:33.537Z,9.85
2019-02-23T12:15:07.710Z,10.18
2019-02-23T12:17:40.972Z,10.23
2019-02-23T12:20:14.206Z,10.15
2019-02-23T12:22:47.458Z,8.98
2019-02-23T12:25:20.692Z,10.08
2019-02-23T12:27:53.955Z,9.58
2019-02-23T12:30:27.194Z,9.65
2019-02-23T12:33:00.432Z,9.60
2019-02-23T12:35:33.669Z,10.30
2019-02-23T12:38:06.918Z,10.30
2019-02-23T12:40:40.155Z,9.78
2019-02-23T12:43:13.401Z,9.78
2019-02-23T12:45:46.642Z,9.80
2019-02-23T12:48:19.881Z,9.38
2019-02-23T12:50:53.113Z,9.18
2019-02-23T12:53:26.356Z,10.30
2019-02-23T12:56:00.557Z,9.95
2019-02-23T12:58:33.799Z,10.35
2019-02-23T13:01:07.031Z,10.80
2019-02-23T13:03:40.288Z,11.28
2019-02-23T13:06:13.525Z,11.10
2019-02-23T13:09:09.890Z,10.75
2019-02-23T13:11:49.305Z,9.90
2019-02-23T13:14:40.175Z,11.25
2019-02-23T13:17:28.752Z,11.12
2019-02-23T13:20:31.744Z,10.63
2019-02-23T13:23:31.093Z,10.63
2019-02-23T13:26:33.035Z,11.50
2019-02-23T13:29:21.389Z,10.93
2019-02-23T13:32:14.560Z,12.47
2019-02-23T13:35:19.938Z,11.15
2019-02-23T13:38:02.121Z,10.93
2019-02-23T13:40:59.605Z,10.45
2019-02-23T13:43:41.789Z,9.78
2019-02-23T13:46:26.928Z,9.75
2019-02-23T13:49:21.343Z,9.95
2019-02-23T13:51:57.827Z,9.50
2019-02-23T13:54:43.224Z,10.05
2019-02-23T13:57:35.991Z,9.53
2019-02-23T14:00:21.267Z,9.83
2019-02-23T14:03:23.694Z,9.53
2019-02-23T14:06:02.857Z,9.00
2019-02-23T14:08:42.264Z,8.75
2019-02-23T14:11:35.644Z,8.68
2019-02-23T14:14:21.318Z,8.68
2019-02-23T14:17:25.935Z,8.18
2019-02-23T14:20:21.525Z,8.05
2019-02-23T14:23:31.522Z,8.15
2019-02-23T14:26:08.022Z,7.37
2019-02-23T14:28:44.528Z,7.12
2019-02-23T14:31:38.924Z,6.70
2019-02-23T14:34:23.745Z,7.15
2019-02-23T14:37:05.944Z,6.70
2019-02-23T14:39:45.197Z,6.42
2019-02-23T14:42:27.504Z,6.17
2019-02-23T14:45:18.896Z,6.75
2019-02-23T14:48:01.351Z,6.40
2019-02-23T14:50:54.786Z,6.83
2019-02-23T14:53:43.127Z,6.10
2019-02-23T14:56:31.602Z,7.72
2019-02-23T14:59:32.587Z,7.40
2019-02-23T15:02:31.633Z,7.83
2019-02-23T15:05:13.676Z,8.40
2019-02-23T15:07:50.183Z,8.63
2019-02-23T15:10:29.588Z,7.80
2019-02-23T15:13:26.799Z,7.53
2019-02-23T15:16:21.144Z,6.65
2019-02-23T15:19:18.144Z,6.85
2019-02-23T15:22:14.569Z,6.40
2019-02-23T15:24:53.649Z,6.50
2019-02-23T15:27:49.734Z,5.87
2019-02-23T15:30:35.098Z,6.62
2019-02-23T15:33:14.346Z,5.67
2019-02-23T15:35:56.388Z,5.80
2019-02-23T15:38:44.632Z,5.25
2019-02-23T15:41:42.540Z,5.45
2019-02-23T15:44:52.003Z,5.12
2019-02-23T15:47:51.274Z,5.87
2019-02-23T15:50:24.516Z,5.25
2019-02-23T15:52:57.729Z,5.42
2019-02-23T15:55:30.953Z,4.90
2019-02-23T15:58:04.194Z,5.65
2019-02-23T16:00:37.439Z,4.80
2019-02-23T16:03:10.681Z,4.80
2019-02-23T16:05:43.912Z,4.47
2019-02-23T16:08:17.155Z,4.47
2019-02-23T16:10:50.381Z,4.62
2019-02-23T16:13:23.638Z,5.05
2019-02-23T16:15:56.873Z,4.30
2019-02-23T16:18:30.119Z,4.42
2019-02-23T16:21:03.353Z,4.37
2019-02-23T16:23:36.590Z,4.28
2019-02-23T16:26:09.822Z,3.85
2019-02-23T16:28:43.052Z,3.75
2019-02-23T16:31:16.276Z,3.87
2019-02-23T16:33:49.607Z,4.03
2019-02-23T16:36:22.840Z,4.03
2019-02-23T16:38:56.083Z,4.08
2019-02-23T16:41:30.280Z,4.17
2019-02-23T16:44:03.527Z,3.33
2019-02-23T16:46:36.753Z,4.00
2019-02-23T16:49:10.002Z,3.90
2019-02-23T16:51:43.319Z,3.75
2019-02-23T16:54:16.618Z,3.62
2019-02-23T16:56:49.816Z,3.35
2019-02-23T16:59:23.047Z,3.80
2019-02-23T17:01:56.285Z,3.22
2019-02-23T17:04:29.514Z,3.50
2019-02-23T17:07:02.756Z,3.80
2019-02-23T17:09:35.981Z,4.15
2019-02-23T17:12:09.229Z,4.40
2019-02-23T17:14:42.624Z,4.62
2019-02-23T17:17:15.790Z,3.67
2019-02-23T17:19:49.023Z,4.58
2019-02-23T17:22:22.273Z,4.87
2019-02-23T17:24:55.508Z,4.08
2019-02-23T17:27:36.215Z,4.95
2019-02-23T17:30:05.695Z,4.45
2019-02-23T17:32:38.964Z,4.60
2019-02-23T17:35:12.132Z,4.83
2019-02-23T17:37:45.376Z,4.60
2019-02-23T17:40:18.913Z,4.83
2019-02-23T17:42:52.170Z,5.25
2019-02-23T17:45:25.400Z,4.53
2019-02-23T17:47:58.649Z,5.20
2019-02-23T17:50:31.881Z,5.12
2019-02-23T17:53:05.121Z,5.30
2019-02-23T17:55:38.353Z,5.15
2019-02-23T17:58:11.605Z,4.33
2019-02-23T18:00:44.835Z,4.75
2019-02-23T18:03:18.082Z,4.37
2019-02-23T18:05:51.309Z,4.58
2019-02-23T18:08:24.557Z,4.72
2019-02-23T18:10:57.780Z,4.85
2019-02-23T18:13:31.016Z,4.50
2019-02-23T18:16:04.252Z,4.65
2019-02-23T18:18:37.495Z,4.33
2019-02-23T18:21:10.732Z,4.30
2019-02-23T18:23:43.985Z,4.95
2019-02-23T18:26:21.091Z,4.80
2019-02-23T18:28:52.152Z,4.85
2019-02-23T18:31:25.689Z,5.55
2019-02-23T18:33:58.937Z,5.72
2019-02-23T18:36:32.179Z,3.90
2019-02-23T18:39:05.429Z,4.60
2019-02-23T18:41:40.284Z,4.58
2019-02-23T18:44:13.533Z,5.00
2019-02-23T18:46:46.772Z,4.35
2019-02-23T18:49:20.019Z,5.03
2019-02-23T18:51:53.256Z,4.80
2019-02-23T18:54:26.497Z,4.42
2019-02-23T18:56:59.727Z,4.70
2019-02-23T18:59:32.973Z,4.33
2019-02-23T19:02:06.215Z,4.50
2019-02-23T19:04:39.466Z,4.20
2019-02-23T19:07:12.699Z,4.70
2019-02-23T19:09:45.936Z,4.20
2019-02-23T19:12:19.167Z,4.25
2019-02-23T19:14:52.419Z,4.80
2019-02-23T19:17:25.654Z,4.53
2019-02-23T19:19:58.914Z,4.75
2019-02-23T19:22:33.217Z,4.55
2019-02-23T19:25:08.592Z,4.15
2019-02-23T19:27:41.831Z,4.67
2019-02-23T19:30:15.068Z,4.40
2019-02-23T19:32:48.470Z,4.40
2019-02-23T19:35:21.713Z,4.12
2019-02-23T19:37:54.940Z,4.47
2019-02-23T19:40:28.198Z,4.60
2019-02-23T19:43:01.430Z,4.33
2019-02-23T19:45:34.947Z,4.15
2019-02-23T19:48:08.177Z,4.40
2019-02-23T19:50:44.956Z,4.55
2019-02-23T19:53:18.191Z,4.22
2019-02-23T19:55:51.438Z,4.83
2019-02-23T19:58:24.669Z,3.92
2019-02-23T20:00:57.921Z,4.05
2019-02-23T20:03:31.155Z,4.20
2019-02-23T20:06:04.417Z,4.03
2019-02-23T20:08:37.720Z,4.03
2019-02-23T20:11:11.032Z,4.12
2019-02-23T20:13:44.275Z,4.50
2019-02-23T20:16:18.184Z,4.65
2019-02-23T20:18:51.404Z,4.22
2019-02-23T20:21:24.649Z,4.60
2019-02-23T20:23:57.884Z,4.25
2019-02-23T20:26:31.128Z,4.12
2019-02-23T20:29:04.364Z,3.70
2019-02-23T20:31:37.613Z,4.25
2019-02-23T20:34:10.840Z,4.62
2019-02-23T20:36:44.077Z,4.15
2019-02-23T20:39:17.311Z,4.08
2019-02-23T20:41:50.569Z,4.28
2019-02-23T20:44:23.794Z,4.37
2019-02-23T20:46:58.663Z,4.45
2019-02-23T20:49:32.062Z,4.03
2019-02-23T20:52:05.309Z,4.35
2019-02-23T20:54:38.548Z,4.00
2019-02-23T20:57:14.089Z,4.67
2019-02-23T20:59:48.048Z,4.58
2019-02-23T21:02:21.481Z,4.22
2019-02-23T21:04:57.034Z,4.62
2019-02-23T21:07:30.298Z,4.58
2019-02-23T21:10:05.932Z,4.85
2019-02-23T21:12:39.172Z,4.67
2019-02-23T21:15:12.411Z,4.95
2019-02-23T21:17:45.738Z,5.00
2019-02-23T21:20:18.971Z,5.10
2019-02-23T21:22:52.221Z,5.25
2019-02-23T21:25:25.456Z,5.53
2019-02-23T21:27:58.700Z,5.22
2019-02-23T21:30:32.906Z,5.15
2019-02-23T21:33:08.950Z,4.72
2019-02-23T21:35:42.185Z,4.58
2019-02-23T21:38:15.428Z,5.00
2019-02-23T21:40:48.652Z,4.90
2019-02-23T21:43:21.917Z,4.90
2019-02-23T21:45:55.153Z,4.92
2019-02-23T21:48:28.397Z,4.90
2019-02-23T21:51:01.638Z,4.90
2019-02-23T21:53:35.945Z,5.53
2019-02-23T21:56:09.191Z,4.90
2019-02-23T21:58:42.440Z,5.33
2019-02-23T22:01:15.679Z,4.95
2019-02-23T22:03:48.919Z,5.28
2019-02-23T22:06:22.225Z,5.03
2019-02-23T22:08:55.465Z,4.70
2019-02-23T22:11:28.695Z,5.05
2019-02-23T22:14:02.905Z,4.92
2019-02-23T22:16:36.131Z,4.97
2019-02-23T22:19:09.388Z,5.40
2019-02-23T22:21:42.613Z,4.70
2019-02-23T22:24:15.874Z,5.00
2019-02-23T22:26:49.102Z,5.05
2019-02-23T22:29:22.352Z,5.55
2019-02-23T22:31:55.581Z,5.00
2019-02-23T22:34:28.832Z,5.15
2019-02-23T22:37:02.064Z,4.60
2019-02-23T22:39:35.308Z,5.08
2019-02-23T22:42:08.546Z,5.35
2019-02-23T22:44:41.792Z,5.05
2019-02-23T22:47:15.027Z,5.12
2019-02-23T22:49:49.256Z,4.97
2019-02-23T22:52:22.489Z,5.28
2019-02-23T22:54:55.744Z,5.08
2019-02-23T22:57:28.974Z,4.62
2019-02-23T23:00:02.483Z,5.17
2019-02-23T23:02:38.174Z,5.20
2019-02-23T23:05:11.702Z,4.92
2019-02-23T23:07:44.942Z,5.15
2019-02-23T23:10:18.181Z,5.05
2019-02-23T23:12:51.408Z,5.17
2019-02-23T23:15:24.649Z,4.78
2019-02-23T23:17:57.881Z,4.95
2019-02-23T23:20:31.123Z,4.50
2019-02-23T23:23:04.358Z,5.37
2019-02-23T23:25:38.589Z,4.70
2019-02-23T23:28:11.817Z,4.80
2019-02-23T23:30:45.068Z,5.45
2019-02-23T23:33:18.293Z,4.53
2019-02-23T23:35:51.547Z,4.95
2019-02-23T23:38:25.754Z,4.62
2019-02-23T23:40:58.996Z,5.12
2019-02-23T23:43:32.230Z,5.05
2019-02-23T23:46:05.487Z,5.60
2019-02-23T23:48:38.720Z,4.70
2019-02-23T23:51:11.973Z,5.60
2019-02-23T23:53:45.206Z,5.58
2019-02-23T23:56:18.463Z,5.40
2019-02-23T23:58:51.698Z,4.60
